sensor_id;sensor_type;location;lat;lon;timestamp;temperature;humidity
2841;DHT22;53423;49.224;12.074;2022-07-23T00:00:36;19.60;99.90
2841;DHT22;53423;49.224;12.074;2022-07-23T00:03:05;19.60;99.90
2841;DHT22;53423;49.224;12.074;2022-07-23T00:05:34;19.60;99.90
2841;DHT22;53423;49.224;12.074;2022-07-23T00:08:04;19.60;99.90
2841;DHT22;53423;49.224;12.074;2022-07-23T00:10:40;19.60;99.90
2841;DHT22;53423;49.224;12.074;2022-07-23T00:13:08;19.60;99.90
2841;DHT22;53423;49.224;12.074;2022-07-23T00:15:38;19.50;99.90
2841;DHT22;53423;49.224;12.074;2022-07-23T00:18:06;19.50;99.90
2841;DHT22;53423;49.224;12.074;2022-07-23T00:20:34;19.50;99.90
2841;DHT22;53423;49.224;12.074;2022-07-23T00:23:03;19.50;99.90
2841;DHT22;53423;49.224;12.074;2022-07-23T00:25:31;19.50;99.90
2841;DHT22;53423;49.224;12.074;2022-07-23T00:28:02;19.60;99.90
2841;DHT22;53423;49.224;12.074;2022-07-23T00:30:31;19.60;99.90
2841;DHT22;53423;49.224;12.074;2022-07-23T00:33:03;19.60;99.90
2841;DHT22;53423;49.224;12.074;2022-07-23T00:35:33;19.60;99.90
2841;DHT22;53423;49.224;12.074;2022-07-23T00:38:02;19.70;99.90
2841;DHT22;53423;49.224;12.074;2022-07-23T00:40:31;19.80;99.90
2841;DHT22;53423;49.224;12.074;2022-07-23T00:43:00;19.80;99.90
2841;DHT22;53423;49.224;12.074;2022-07-23T00:45:28;19.90;99.90
2841;DHT22;53423;49.224;12.074;2022-07-23T00:47:57;20.00;99.90
2841;DHT22;53423;49.224;12.074;2022-07-23T00:50:27;20.00;99.90
2841;DHT22;53423;49.224;12.074;2022-07-23T00:52:55;20.00;99.90
2841;DHT22;53423;49.224;12.074;2022-07-23T00:55:24;20.00;99.90
2841;DHT22;53423;49.224;12.074;2022-07-23T00:57:53;20.00;99.90
2841;DHT22;53423;49.224;12.074;2022-07-23T01:00:23;20.00;99.90
2841;DHT22;53423;49.224;12.074;2022-07-23T01:02:51;20.00;99.90
2841;DHT22;53423;49.224;12.074;2022-07-23T01:05:19;20.00;99.90
2841;DHT22;53423;49.224;12.074;2022-07-23T01:07:51;20.00;99.90
2841;DHT22;53423;49.224;12.074;2022-07-23T01:10:23;20.10;99.90
2841;DHT22;53423;49.224;12.074;2022-07-23T01:13:02;20.20;99.90
2841;DHT22;53423;49.224;12.074;2022-07-23T01:15:32;20.30;99.90
2841;DHT22;53423;49.224;12.074;2022-07-23T01:18:01;20.30;99.90
2841;DHT22;53423;49.224;12.074;2022-07-23T01:20:29;20.40;99.90
2841;DHT22;53423;49.224;12.074;2022-07-23T01:22:59;20.50;99.90
2841;DHT22;53423;49.224;12.074;2022-07-23T01:25:27;20.60;99.90
2841;DHT22;53423;49.224;12.074;2022-07-23T01:27:56;20.70;99.90
2841;DHT22;53423;49.224;12.074;2022-07-23T01:30:24;20.70;99.90
2841;DHT22;53423;49.224;12.074;2022-07-23T01:32:53;20.80;99.90
2841;DHT22;53423;49.224;12.074;2022-07-23T01:35:21;20.90;99.90
2841;DHT22;53423;49.224;12.074;2022-07-23T01:37:49;20.90;99.90
2841;DHT22;53423;49.224;12.074;2022-07-23T01:40:19;20.90;99.90
2841;DHT22;53423;49.224;12.074;2022-07-23T01:42:49;21.00;99.90
2841;DHT22;53423;49.224;12.074;2022-07-23T01:45:17;21.00;99.90
2841;DHT22;53423;49.224;12.074;2022-07-23T01:47:45;21.00;99.90
2841;DHT22;53423;49.224;12.074;2022-07-23T01:50:14;21.10;99.90
2841;DHT22;53423;49.224;12.074;2022-07-23T01:52:42;21.10;99.90
2841;DHT22;53423;49.224;12.074;2022-07-23T01:55:10;21.10;99.90
2841;DHT22;53423;49.224;12.074;2022-07-23T01:57:46;21.20;99.90
2841;DHT22;53423;49.224;12.074;2022-07-23T02:00:14;21.20;99.90
2841;DHT22;53423;49.224;12.074;2022-07-23T02:02:43;21.20;99.90
2841;DHT22;53423;49.224;12.074;2022-07-23T02:05:11;21.20;99.90
2841;DHT22;53423;49.224;12.074;2022-07-23T02:07:39;21.20;99.90
2841;DHT22;53423;49.224;12.074;2022-07-23T02:10:09;21.10;99.90
2841;DHT22;53423;49.224;12.074;2022-07-23T02:12:37;21.00;99.90
2841;DHT22;53423;49.224;12.074;2022-07-23T02:15:08;21.10;99.90
2841;DHT22;53423;49.224;12.074;2022-07-23T02:17:36;21.00;99.90
2841;DHT22;53423;49.224;12.074;2022-07-23T02:20:05;21.00;99.90
2841;DHT22;53423;49.224;12.074;2022-07-23T02:22:34;20.90;99.90
2841;DHT22;53423;49.224;12.074;2022-07-23T02:25:03;20.90;99.90
2841;DHT22;53423;49.224;12.074;2022-07-23T02:27:31;20.90;99.90
2841;DHT22;53423;49.224;12.074;2022-07-23T02:30:00;20.90;99.90
2841;DHT22;53423;49.224;12.074;2022-07-23T02:32:29;20.80;99.90
2841;DHT22;53423;49.224;12.074;2022-07-23T02:34:57;20.80;99.90
2841;DHT22;53423;49.224;12.074;2022-07-23T02:37:26;20.80;99.90
2841;DHT22;53423;49.224;12.074;2022-07-23T02:39:54;20.70;99.90
2841;DHT22;53423;49.224;12.074;2022-07-23T02:42:22;20.70;99.90
2841;DHT22;53423;49.224;12.074;2022-07-23T02:44:51;20.80;99.90
2841;DHT22;53423;49.224;12.074;2022-07-23T02:47:19;20.90;99.90
2841;DHT22;53423;49.224;12.074;2022-07-23T02:49:49;21.00;99.90
2841;DHT22;53423;49.224;12.074;2022-07-23T02:52:17;21.00;99.90
2841;DHT22;53423;49.224;12.074;2022-07-23T02:54:46;21.00;99.90
2841;DHT22;53423;49.224;12.074;2022-07-23T02:57:14;20.90;99.90
2841;DHT22;53423;49.224;12.074;2022-07-23T02:59:42;20.80;99.90
2841;DHT22;53423;49.224;12.074;2022-07-23T03:02:11;20.80;99.90
2841;DHT22;53423;49.224;12.074;2022-07-23T03:04:39;20.70;99.90
2841;DHT22;53423;49.224;12.074;2022-07-23T03:07:10;20.70;99.90
2841;DHT22;53423;49.224;12.074;2022-07-23T03:09:39;20.60;99.90
2841;DHT22;53423;49.224;12.074;2022-07-23T03:12:08;20.50;99.90
2841;DHT22;53423;49.224;12.074;2022-07-23T03:14:40;20.40;99.90
2841;DHT22;53423;49.224;12.074;2022-07-23T03:17:09;20.30;99.90
2841;DHT22;53423;49.224;12.074;2022-07-23T03:19:37;20.30;99.90
2841;DHT22;53423;49.224;12.074;2022-07-23T03:22:06;20.30;99.90
2841;DHT22;53423;49.224;12.074;2022-07-23T03:24:36;20.30;99.90
2841;DHT22;53423;49.224;12.074;2022-07-23T03:27:23;20.30;99.90
2841;DHT22;53423;49.224;12.074;2022-07-23T03:29:52;20.40;99.90
2841;DHT22;53423;49.224;12.074;2022-07-23T03:32:20;20.20;99.90
2841;DHT22;53423;49.224;12.074;2022-07-23T03:34:49;20.10;99.90
2841;DHT22;53423;49.224;12.074;2022-07-23T03:37:19;20.10;99.90
2841;DHT22;53423;49.224;12.074;2022-07-23T03:39:49;20.10;99.90
2841;DHT22;53423;49.224;12.074;2022-07-23T03:42:17;20.20;99.90
2841;DHT22;53423;49.224;12.074;2022-07-23T03:44:45;20.20;99.90
2841;DHT22;53423;49.224;12.074;2022-07-23T03:47:13;20.20;99.90
2841;DHT22;53423;49.224;12.074;2022-07-23T03:49:43;20.20;99.90
2841;DHT22;53423;49.224;12.074;2022-07-23T03:52:12;20.30;99.90
2841;DHT22;53423;49.224;12.074;2022-07-23T03:54:40;20.30;99.90
2841;DHT22;53423;49.224;12.074;2022-07-23T03:57:09;20.40;99.90
2841;DHT22;53423;49.224;12.074;2022-07-23T03:59:38;20.40;99.90
2841;DHT22;53423;49.224;12.074;2022-07-23T04:02:06;20.40;99.90
2841;DHT22;53423;49.224;12.074;2022-07-23T04:04:34;20.40;99.90
2841;DHT22;53423;49.224;12.074;2022-07-23T04:07:02;20.50;99.90
2841;DHT22;53423;49.224;12.074;2022-07-23T04:09:31;20.50;99.90
2841;DHT22;53423;49.224;12.074;2022-07-23T04:11:59;20.50;99.90
2841;DHT22;53423;49.224;12.074;2022-07-23T04:14:29;20.50;99.90
2841;DHT22;53423;49.224;12.074;2022-07-23T04:16:57;20.60;99.90
2841;DHT22;53423;49.224;12.074;2022-07-23T04:19:26;20.60;99.90
2841;DHT22;53423;49.224;12.074;2022-07-23T04:21:54;20.60;99.90
2841;DHT22;53423;49.224;12.074;2022-07-23T04:24:22;20.60;99.90
2841;DHT22;53423;49.224;12.074;2022-07-23T04:26:50;20.50;99.90
2841;DHT22;53423;49.224;12.074;2022-07-23T04:29:19;20.50;99.90
2841;DHT22;53423;49.224;12.074;2022-07-23T04:31:49;20.50;99.90
2841;DHT22;53423;49.224;12.074;2022-07-23T04:34:17;20.50;99.90
2841;DHT22;53423;49.224;12.074;2022-07-23T04:36:46;20.50;99.90
2841;DHT22;53423;49.224;12.074;2022-07-23T04:39:14;20.50;99.90
2841;DHT22;53423;49.224;12.074;2022-07-23T04:41:42;20.60;99.90
2841;DHT22;53423;49.224;12.074;2022-07-23T04:44:10;20.60;99.90
2841;DHT22;53423;49.224;12.074;2022-07-23T04:46:39;20.60;99.90
2841;DHT22;53423;49.224;12.074;2022-07-23T04:49:08;20.70;99.90
2841;DHT22;53423;49.224;12.074;2022-07-23T04:51:37;20.70;99.90
2841;DHT22;53423;49.224;12.074;2022-07-23T04:54:05;20.80;99.90
2841;DHT22;53423;49.224;12.074;2022-07-23T04:56:33;20.80;99.90
2841;DHT22;53423;49.224;12.074;2022-07-23T04:59:02;20.80;99.90
2841;DHT22;53423;49.224;12.074;2022-07-23T05:01:31;20.80;99.90
2841;DHT22;53423;49.224;12.074;2022-07-23T05:03:59;20.90;99.90
2841;DHT22;53423;49.224;12.074;2022-07-23T05:06:29;20.90;99.90
2841;DHT22;53423;49.224;12.074;2022-07-23T05:08:57;20.90;99.90
2841;DHT22;53423;49.224;12.074;2022-07-23T05:11:26;21.00;99.90
2841;DHT22;53423;49.224;12.074;2022-07-23T05:13:54;21.00;99.90
2841;DHT22;53423;49.224;12.074;2022-07-23T05:16:22;21.00;99.90
2841;DHT22;53423;49.224;12.074;2022-07-23T05:18:51;21.00;99.90
2841;DHT22;53423;49.224;12.074;2022-07-23T05:21:19;21.00;99.90
2841;DHT22;53423;49.224;12.074;2022-07-23T05:23:49;21.00;99.90
2841;DHT22;53423;49.224;12.074;2022-07-23T05:26:17;21.10;99.90
2841;DHT22;53423;49.224;12.074;2022-07-23T05:28:47;21.10;99.90
2841;DHT22;53423;49.224;12.074;2022-07-23T05:31:16;21.00;99.90
2841;DHT22;53423;49.224;12.074;2022-07-23T05:33:44;21.10;99.90
2841;DHT22;53423;49.224;12.074;2022-07-23T05:36:13;21.10;99.90
2841;DHT22;53423;49.224;12.074;2022-07-23T05:38:41;21.10;99.90
2841;DHT22;53423;49.224;12.074;2022-07-23T05:41:11;21.20;99.90
2841;DHT22;53423;49.224;12.074;2022-07-23T05:43:39;21.20;99.90
2841;DHT22;53423;49.224;12.074;2022-07-23T05:46:07;21.30;99.90
2841;DHT22;53423;49.224;12.074;2022-07-23T05:48:36;21.30;99.90
2841;DHT22;53423;49.224;12.074;2022-07-23T05:51:05;21.40;99.90
2841;DHT22;53423;49.224;12.074;2022-07-23T05:53:34;21.50;99.90
2841;DHT22;53423;49.224;12.074;2022-07-23T05:56:03;21.60;99.90
2841;DHT22;53423;49.224;12.074;2022-07-23T05:58:32;21.70;99.90
2841;DHT22;53423;49.224;12.074;2022-07-23T06:01:00;21.80;99.90
2841;DHT22;53423;49.224;12.074;2022-07-23T06:03:29;21.90;99.90
2841;DHT22;53423;49.224;12.074;2022-07-23T06:05:57;22.10;99.90
2841;DHT22;53423;49.224;12.074;2022-07-23T06:08:25;22.30;99.90
2841;DHT22;53423;49.224;12.074;2022-07-23T06:10:54;22.40;99.90
2841;DHT22;53423;49.224;12.074;2022-07-23T06:13:22;22.50;99.90
2841;DHT22;53423;49.224;12.074;2022-07-23T06:15:52;22.60;99.90
2841;DHT22;53423;49.224;12.074;2022-07-23T06:18:20;22.60;99.90
2841;DHT22;53423;49.224;12.074;2022-07-23T06:20:48;22.60;99.90
2841;DHT22;53423;49.224;12.074;2022-07-23T06:23:22;22.60;99.90
2841;DHT22;53423;49.224;12.074;2022-07-23T06:25:50;22.70;99.90
2841;DHT22;53423;49.224;12.074;2022-07-23T06:28:18;22.80;97.90
2841;DHT22;53423;49.224;12.074;2022-07-23T06:30:47;23.10;96.30
2841;DHT22;53423;49.224;12.074;2022-07-23T06:33:17;23.40;94.80
2841;DHT22;53423;49.224;12.074;2022-07-23T06:35:45;23.70;93.40
2841;DHT22;53423;49.224;12.074;2022-07-23T06:38:13;24.00;94.30
2841;DHT22;53423;49.224;12.074;2022-07-23T06:40:43;24.10;91.40
2841;DHT22;53423;49.224;12.074;2022-07-23T06:43:11;24.20;90.30
2841;DHT22;53423;49.224;12.074;2022-07-23T06:45:40;24.30;88.90
2841;DHT22;53423;49.224;12.074;2022-07-23T06:48:08;24.60;88.30
2841;DHT22;53423;49.224;12.074;2022-07-23T06:50:37;24.70;85.50
2841;DHT22;53423;49.224;12.074;2022-07-23T06:53:06;24.90;85.40
2841;DHT22;53423;49.224;12.074;2022-07-23T06:55:35;25.10;84.20
2841;DHT22;53423;49.224;12.074;2022-07-23T06:58:05;25.30;81.70
2841;DHT22;53423;49.224;12.074;2022-07-23T07:00:33;25.50;79.30
2841;DHT22;53423;49.224;12.074;2022-07-23T07:03:02;25.60;80.60
2841;DHT22;53423;49.224;12.074;2022-07-23T07:05:31;25.70;79.20
2841;DHT22;53423;49.224;12.074;2022-07-23T07:08:00;25.80;76.90
2841;DHT22;53423;49.224;12.074;2022-07-23T07:10:28;25.70;76.30
2841;DHT22;53423;49.224;12.074;2022-07-23T07:12:57;25.70;75.40
2841;DHT22;53423;49.224;12.074;2022-07-23T07:15:25;25.60;77.20
2841;DHT22;53423;49.224;12.074;2022-07-23T07:17:53;25.60;77.20
2841;DHT22;53423;49.224;12.074;2022-07-23T07:20:21;25.80;78.60
2841;DHT22;53423;49.224;12.074;2022-07-23T07:22:50;25.90;77.10
2841;DHT22;53423;49.224;12.074;2022-07-23T07:25:20;25.90;76.70
2841;DHT22;53423;49.224;12.074;2022-07-23T07:27:48;25.70;77.40
2841;DHT22;53423;49.224;12.074;2022-07-23T07:30:16;25.50;78.80
2841;DHT22;53423;49.224;12.074;2022-07-23T07:32:44;25.40;79.20
2841;DHT22;53423;49.224;12.074;2022-07-23T07:35:23;25.50;79.10
2841;DHT22;53423;49.224;12.074;2022-07-23T07:37:51;25.40;79.70
2841;DHT22;53423;49.224;12.074;2022-07-23T07:40:21;25.20;81.70
2841;DHT22;53423;49.224;12.074;2022-07-23T07:42:52;25.50;81.50
2841;DHT22;53423;49.224;12.074;2022-07-23T07:45:22;25.80;80.20
2841;DHT22;53423;49.224;12.074;2022-07-23T07:47:51;26.00;78.40
2841;DHT22;53423;49.224;12.074;2022-07-23T07:50:21;26.30;79.00
2841;DHT22;53423;49.224;12.074;2022-07-23T07:52:50;26.80;72.90
2841;DHT22;53423;49.224;12.074;2022-07-23T07:55:18;27.20;74.20
2841;DHT22;53423;49.224;12.074;2022-07-23T07:57:48;27.50;72.70
2841;DHT22;53423;49.224;12.074;2022-07-23T08:00:16;27.60;71.40
2841;DHT22;53423;49.224;12.074;2022-07-23T08:02:51;28.00;72.40
2841;DHT22;53423;49.224;12.074;2022-07-23T08:05:20;28.20;68.20
2841;DHT22;53423;49.224;12.074;2022-07-23T08:07:54;28.30;65.20
2841;DHT22;53423;49.224;12.074;2022-07-23T08:10:23;28.20;69.30
2841;DHT22;53423;49.224;12.074;2022-07-23T08:12:54;28.00;67.40
2841;DHT22;53423;49.224;12.074;2022-07-23T08:15:24;27.80;65.90
2841;DHT22;53423;49.224;12.074;2022-07-23T08:17:53;27.90;65.10
2841;DHT22;53423;49.224;12.074;2022-07-23T08:20:22;27.90;66.90
2841;DHT22;53423;49.224;12.074;2022-07-23T08:22:54;28.00;65.20
2841;DHT22;53423;49.224;12.074;2022-07-23T08:25:25;28.20;64.70
2841;DHT22;53423;49.224;12.074;2022-07-23T08:27:55;28.50;66.70
2841;DHT22;53423;49.224;12.074;2022-07-23T08:30:24;28.80;65.70
2841;DHT22;53423;49.224;12.074;2022-07-23T08:32:55;29.20;62.60
2841;DHT22;53423;49.224;12.074;2022-07-23T08:35:26;29.60;63.20
2841;DHT22;53423;49.224;12.074;2022-07-23T08:37:57;30.00;58.00
2841;DHT22;53423;49.224;12.074;2022-07-23T08:40:27;30.40;55.90
2841;DHT22;53423;49.224;12.074;2022-07-23T08:42:57;30.70;57.20
2841;DHT22;53423;49.224;12.074;2022-07-23T08:45:27;30.90;56.90
2841;DHT22;53423;49.224;12.074;2022-07-23T08:47:57;31.00;56.40
2841;DHT22;53423;49.224;12.074;2022-07-23T08:50:29;31.10;52.40
2841;DHT22;53423;49.224;12.074;2022-07-23T08:52:59;31.30;55.20
2841;DHT22;53423;49.224;12.074;2022-07-23T08:55:29;31.80;53.00
2841;DHT22;53423;49.224;12.074;2022-07-23T08:57:59;31.70;53.20
2841;DHT22;53423;49.224;12.074;2022-07-23T09:00:27;31.60;49.20
2841;DHT22;53423;49.224;12.074;2022-07-23T09:02:56;31.60;49.20
2841;DHT22;53423;49.224;12.074;2022-07-23T09:05:24;31.50;47.70
2841;DHT22;53423;49.224;12.074;2022-07-23T09:08:10;31.10;47.80
2841;DHT22;53423;49.224;12.074;2022-07-23T09:10:47;31.00;48.20
2841;DHT22;53423;49.224;12.074;2022-07-23T09:13:28;31.10;48.30
2841;DHT22;53423;49.224;12.074;2022-07-23T09:15:58;31.40;47.70
2841;DHT22;53423;49.224;12.074;2022-07-23T09:18:32;31.20;47.50
2841;DHT22;53423;49.224;12.074;2022-07-23T09:21:09;30.80;47.70
2841;DHT22;53423;49.224;12.074;2022-07-23T09:23:38;30.40;47.60
2841;DHT22;53423;49.224;12.074;2022-07-23T09:26:25;30.10;48.50
2841;DHT22;53423;49.224;12.074;2022-07-23T09:28:57;30.20;49.40
2841;DHT22;53423;49.224;12.074;2022-07-23T09:31:31;30.50;48.90
2841;DHT22;53423;49.224;12.074;2022-07-23T09:34:12;30.30;49.30
2841;DHT22;53423;49.224;12.074;2022-07-23T09:36:41;30.20;48.50
2841;DHT22;53423;49.224;12.074;2022-07-23T09:39:11;30.30;49.30
2841;DHT22;53423;49.224;12.074;2022-07-23T09:41:41;30.70;48.60
2841;DHT22;53423;49.224;12.074;2022-07-23T09:44:13;31.10;47.80
2841;DHT22;53423;49.224;12.074;2022-07-23T09:46:43;31.80;47.60
2841;DHT22;53423;49.224;12.074;2022-07-23T09:49:19;32.00;47.20
2841;DHT22;53423;49.224;12.074;2022-07-23T09:51:51;32.00;46.20
2841;DHT22;53423;49.224;12.074;2022-07-23T09:54:30;32.30;46.20
2841;DHT22;53423;49.224;12.074;2022-07-23T09:57:02;32.40;45.10
2841;DHT22;53423;49.224;12.074;2022-07-23T09:59:35;32.10;44.90
2841;DHT22;53423;49.224;12.074;2022-07-23T10:02:06;31.80;46.20
2841;DHT22;53423;49.224;12.074;2022-07-23T10:04:34;31.50;46.80
2841;DHT22;53423;49.224;12.074;2022-07-23T10:07:05;31.40;47.70
2841;DHT22;53423;49.224;12.074;2022-07-23T10:09:36;31.20;47.30
2841;DHT22;53423;49.224;12.074;2022-07-23T10:12:10;30.90;47.60
2841;DHT22;53423;49.224;12.074;2022-07-23T10:14:54;30.70;48.20
2841;DHT22;53423;49.224;12.074;2022-07-23T10:17:24;30.60;48.00
2841;DHT22;53423;49.224;12.074;2022-07-23T10:19:52;30.50;48.80
2841;DHT22;53423;49.224;12.074;2022-07-23T10:22:23;30.50;49.10
2841;DHT22;53423;49.224;12.074;2022-07-23T10:25:10;30.30;49.60
2841;DHT22;53423;49.224;12.074;2022-07-23T10:28:04;30.10;50.20
2841;DHT22;53423;49.224;12.074;2022-07-23T10:30:41;29.80;50.50
2841;DHT22;53423;49.224;12.074;2022-07-23T10:33:30;29.70;51.20
2841;DHT22;53423;49.224;12.074;2022-07-23T10:36:15;29.40;51.30
2841;DHT22;53423;49.224;12.074;2022-07-23T10:38:52;29.20;52.50
2841;DHT22;53423;49.224;12.074;2022-07-23T10:41:31;29.20;53.30
2841;DHT22;53423;49.224;12.074;2022-07-23T10:44:08;28.90;53.60
2841;DHT22;53423;49.224;12.074;2022-07-23T10:46:54;28.70;53.90
2841;DHT22;53423;49.224;12.074;2022-07-23T10:49:32;28.40;54.60
2841;DHT22;53423;49.224;12.074;2022-07-23T10:52:21;28.30;54.40
2841;DHT22;53423;49.224;12.074;2022-07-23T10:54:53;28.20;54.40
2841;DHT22;53423;49.224;12.074;2022-07-23T10:57:22;28.30;54.50
2841;DHT22;53423;49.224;12.074;2022-07-23T11:00:16;28.40;54.40
2841;DHT22;53423;49.224;12.074;2022-07-23T11:02:51;28.60;53.40
2841;DHT22;53423;49.224;12.074;2022-07-23T11:05:21;29.00;52.50
2841;DHT22;53423;49.224;12.074;2022-07-23T11:10:49;29.70;50.00
2841;DHT22;53423;49.224;12.074;2022-07-23T11:13:28;29.90;50.40
2841;DHT22;53423;49.224;12.074;2022-07-23T11:19:16;30.30;48.40
2841;DHT22;53423;49.224;12.074;2022-07-23T11:21:51;29.80;50.00
2841;DHT22;53423;49.224;12.074;2022-07-23T11:24:21;29.50;50.90
2841;DHT22;53423;49.224;12.074;2022-07-23T11:26:58;29.20;51.50
2841;DHT22;53423;49.224;12.074;2022-07-23T11:29:46;29.10;52.00
2841;DHT22;53423;49.224;12.074;2022-07-23T11:32:24;28.80;51.50
2841;DHT22;53423;49.224;12.074;2022-07-23T11:34:55;28.70;52.50
2841;DHT22;53423;49.224;12.074;2022-07-23T11:37:32;28.90;52.80
2841;DHT22;53423;49.224;12.074;2022-07-23T11:40:02;29.20;52.50
2841;DHT22;53423;49.224;12.074;2022-07-23T11:42:32;29.10;50.10
2841;DHT22;53423;49.224;12.074;2022-07-23T11:45:00;29.00;50.00
2841;DHT22;53423;49.224;12.074;2022-07-23T11:47:28;28.70;50.40
2841;DHT22;53423;49.224;12.074;2022-07-23T11:49:59;28.90;51.60
2841;DHT22;53423;49.224;12.074;2022-07-23T11:52:28;29.10;52.20
2841;DHT22;53423;49.224;12.074;2022-07-23T11:55:00;29.20;50.80
2841;DHT22;53423;49.224;12.074;2022-07-23T11:57:30;29.20;49.50
2841;DHT22;53423;49.224;12.074;2022-07-23T12:00:02;29.10;49.60
2841;DHT22;53423;49.224;12.074;2022-07-23T12:02:31;29.40;50.00
2841;DHT22;53423;49.224;12.074;2022-07-23T12:05:01;29.60;48.90
2841;DHT22;53423;49.224;12.074;2022-07-23T12:07:31;29.50;49.20
2841;DHT22;53423;49.224;12.074;2022-07-23T12:10:02;29.40;49.60
2841;DHT22;53423;49.224;12.074;2022-07-23T12:12:38;29.50;50.50
2841;DHT22;53423;49.224;12.074;2022-07-23T12:15:07;29.10;50.50
2841;DHT22;53423;49.224;12.074;2022-07-23T12:17:37;28.80;50.80
2841;DHT22;53423;49.224;12.074;2022-07-23T12:20:11;28.70;51.80
2841;DHT22;53423;49.224;12.074;2022-07-23T12:22:41;28.70;52.10
2841;DHT22;53423;49.224;12.074;2022-07-23T12:25:11;28.60;52.50
2841;DHT22;53423;49.224;12.074;2022-07-23T12:27:40;28.60;54.10
2841;DHT22;53423;49.224;12.074;2022-07-23T12:30:18;28.50;52.70
2841;DHT22;53423;49.224;12.074;2022-07-23T12:32:48;28.80;52.10
2841;DHT22;53423;49.224;12.074;2022-07-23T12:35:18;29.30;53.00
2841;DHT22;53423;49.224;12.074;2022-07-23T12:37:48;29.70;50.70
2841;DHT22;53423;49.224;12.074;2022-07-23T12:40:27;29.90;49.30
2841;DHT22;53423;49.224;12.074;2022-07-23T12:42:57;29.90;52.10
2841;DHT22;53423;49.224;12.074;2022-07-23T12:45:26;30.00;54.40
2841;DHT22;53423;49.224;12.074;2022-07-23T12:48:00;30.10;53.60
2841;DHT22;53423;49.224;12.074;2022-07-23T12:53:21;30.20;51.60
2841;DHT22;53423;49.224;12.074;2022-07-23T12:55:57;29.80;52.70
2841;DHT22;53423;49.224;12.074;2022-07-23T12:58:46;29.40;50.30
2841;DHT22;53423;49.224;12.074;2022-07-23T13:01:27;29.30;52.00
2841;DHT22;53423;49.224;12.074;2022-07-23T13:04:00;29.20;51.40
2841;DHT22;53423;49.224;12.074;2022-07-23T13:06:40;29.10;50.90
2841;DHT22;53423;49.224;12.074;2022-07-23T13:09:10;29.10;51.40
2841;DHT22;53423;49.224;12.074;2022-07-23T13:11:39;29.10;52.20
2841;DHT22;53423;49.224;12.074;2022-07-23T13:14:09;29.20;50.80
2841;DHT22;53423;49.224;12.074;2022-07-23T13:16:39;29.20;51.40
2841;DHT22;53423;49.224;12.074;2022-07-23T13:19:09;29.10;51.40
2841;DHT22;53423;49.224;12.074;2022-07-23T13:21:40;29.00;53.00
2841;DHT22;53423;49.224;12.074;2022-07-23T13:24:11;28.90;53.20
2841;DHT22;53423;49.224;12.074;2022-07-23T13:26:40;28.90;54.70
2841;DHT22;53423;49.224;12.074;2022-07-23T13:29:08;28.80;53.80
2841;DHT22;53423;49.224;12.074;2022-07-23T13:31:37;28.60;53.20
2841;DHT22;53423;49.224;12.074;2022-07-23T13:34:06;28.50;53.90
2841;DHT22;53423;49.224;12.074;2022-07-23T13:36:35;28.50;54.50
2841;DHT22;53423;49.224;12.074;2022-07-23T13:39:05;28.40;55.30
2841;DHT22;53423;49.224;12.074;2022-07-23T13:41:36;28.30;54.80
2841;DHT22;53423;49.224;12.074;2022-07-23T13:44:04;28.10;54.70
2841;DHT22;53423;49.224;12.074;2022-07-23T13:46:33;28.00;55.30
2841;DHT22;53423;49.224;12.074;2022-07-23T13:49:02;27.80;54.30
2841;DHT22;53423;49.224;12.074;2022-07-23T13:51:35;27.70;54.90
2841;DHT22;53423;49.224;12.074;2022-07-23T13:54:05;27.70;55.50
2841;DHT22;53423;49.224;12.074;2022-07-23T13:56:35;27.70;55.40
2841;DHT22;53423;49.224;12.074;2022-07-23T13:59:03;27.80;54.60
2841;DHT22;53423;49.224;12.074;2022-07-23T14:01:32;27.70;54.90
2841;DHT22;53423;49.224;12.074;2022-07-23T14:04:21;27.60;54.70
2841;DHT22;53423;49.224;12.074;2022-07-23T14:06:49;27.60;56.10
2841;DHT22;53423;49.224;12.074;2022-07-23T14:09:39;27.50;56.20
2841;DHT22;53423;49.224;12.074;2022-07-23T14:12:08;27.40;56.00
2841;DHT22;53423;49.224;12.074;2022-07-23T14:14:37;27.30;56.40
2841;DHT22;53423;49.224;12.074;2022-07-23T14:17:06;27.20;57.00
2841;DHT22;53423;49.224;12.074;2022-07-23T14:19:37;27.30;57.00
2841;DHT22;53423;49.224;12.074;2022-07-23T14:22:05;27.50;56.50
2841;DHT22;53423;49.224;12.074;2022-07-23T14:24:34;27.70;56.60
2841;DHT22;53423;49.224;12.074;2022-07-23T14:27:04;27.70;55.10
2841;DHT22;53423;49.224;12.074;2022-07-23T14:29:33;27.80;54.90
2841;DHT22;53423;49.224;12.074;2022-07-23T14:32:03;27.80;55.60
2841;DHT22;53423;49.224;12.074;2022-07-23T14:34:33;27.90;56.00
2841;DHT22;53423;49.224;12.074;2022-07-23T14:37:04;28.00;54.90
2841;DHT22;53423;49.224;12.074;2022-07-23T14:39:33;28.20;54.50
2841;DHT22;53423;49.224;12.074;2022-07-23T14:42:04;28.20;53.20
2841;DHT22;53423;49.224;12.074;2022-07-23T14:44:32;28.20;53.40
2841;DHT22;53423;49.224;12.074;2022-07-23T14:47:03;28.20;51.90
2841;DHT22;53423;49.224;12.074;2022-07-23T14:49:33;28.20;52.10
2841;DHT22;53423;49.224;12.074;2022-07-23T14:52:02;28.20;53.00
2841;DHT22;53423;49.224;12.074;2022-07-23T14:54:31;28.20;52.60
2841;DHT22;53423;49.224;12.074;2022-07-23T14:57:00;28.10;52.20
2841;DHT22;53423;49.224;12.074;2022-07-23T14:59:30;28.00;51.90
2841;DHT22;53423;49.224;12.074;2022-07-23T15:02:00;28.10;52.30
2841;DHT22;53423;49.224;12.074;2022-07-23T15:04:29;28.00;52.00
2841;DHT22;53423;49.224;12.074;2022-07-23T15:07:05;28.00;52.50
2841;DHT22;53423;49.224;12.074;2022-07-23T15:09:33;27.90;52.40
2841;DHT22;53423;49.224;12.074;2022-07-23T15:12:02;27.90;52.80
2841;DHT22;53423;49.224;12.074;2022-07-23T15:14:35;28.00;53.30
2841;DHT22;53423;49.224;12.074;2022-07-23T15:17:04;28.00;52.50
2841;DHT22;53423;49.224;12.074;2022-07-23T15:19:33;27.90;53.20
2841;DHT22;53423;49.224;12.074;2022-07-23T15:22:01;27.90;52.90
2841;DHT22;53423;49.224;12.074;2022-07-23T15:24:32;28.00;52.80
2841;DHT22;53423;49.224;12.074;2022-07-23T15:27:01;28.10;52.60
2841;DHT22;53423;49.224;12.074;2022-07-23T15:29:30;28.20;52.50
2841;DHT22;53423;49.224;12.074;2022-07-23T15:32:00;28.30;51.70
2841;DHT22;53423;49.224;12.074;2022-07-23T15:34:30;28.30;51.10
2841;DHT22;53423;49.224;12.074;2022-07-23T15:36:59;28.40;51.40
2841;DHT22;53423;49.224;12.074;2022-07-23T15:39:37;28.40;51.20
2841;DHT22;53423;49.224;12.074;2022-07-23T15:42:06;28.50;52.20
2841;DHT22;53423;49.224;12.074;2022-07-23T15:44:41;28.60;51.30
2841;DHT22;53423;49.224;12.074;2022-07-23T15:47:16;28.50;51.10
2841;DHT22;53423;49.224;12.074;2022-07-23T15:49:46;28.50;51.00
2841;DHT22;53423;49.224;12.074;2022-07-23T15:52:14;28.50;51.20
2841;DHT22;53423;49.224;12.074;2022-07-23T15:54:47;28.40;51.40
2841;DHT22;53423;49.224;12.074;2022-07-23T15:57:15;28.40;50.70
2841;DHT22;53423;49.224;12.074;2022-07-23T15:59:45;28.30;50.90